sensor_id;sensor_type;location;lat;lon;timestamp;P1;durP1;ratioP1;P2;durP2;ratioP2
70588;SDS011;58152;49.202;18.744;2023-09-07T00:00:29;4.57;;;3.70;;
70588;SDS011;58152;49.202;18.744;2023-09-07T00:02:54;6.20;;;4.40;;
70588;SDS011;58152;49.202;18.744;2023-09-07T00:05:20;5.50;;;4.63;;
70588;SDS011;58152;49.202;18.744;2023-09-07T00:07:45;5.00;;;4.40;;
70588;SDS011;58152;49.202;18.744;2023-09-07T00:10:11;5.65;;;5.00;;
70588;SDS011;58152;49.202;18.744;2023-09-07T00:12:36;5.55;;;4.57;;
70588;SDS011;58152;49.202;18.744;2023-09-07T00:15:04;5.65;;;4.75;;
70588;SDS011;58152;49.202;18.744;2023-09-07T00:17:32;6.05;;;3.85;;
70588;SDS011;58152;49.202;18.744;2023-09-07T00:19:57;5.70;;;4.20;;
70588;SDS011;58152;49.202;18.744;2023-09-07T00:22:23;5.30;;;4.30;;
70588;SDS011;58152;49.202;18.744;2023-09-07T00:24:50;5.63;;;4.68;;
70588;SDS011;58152;49.202;18.744;2023-09-07T00:27:16;5.25;;;4.72;;
70588;SDS011;58152;49.202;18.744;2023-09-07T00:29:41;5.60;;;4.30;;
70588;SDS011;58152;49.202;18.744;2023-09-07T00:32:07;5.22;;;3.85;;
70588;SDS011;58152;49.202;18.744;2023-09-07T00:34:33;6.05;;;3.78;;
70588;SDS011;58152;49.202;18.744;2023-09-07T00:36:59;4.88;;;4.10;;
70588;SDS011;58152;49.202;18.744;2023-09-07T00:39:25;5.13;;;3.92;;
70588;SDS011;58152;49.202;18.744;2023-09-07T00:41:50;4.28;;;3.88;;
70588;SDS011;58152;49.202;18.744;2023-09-07T00:44:16;5.60;;;3.95;;
70588;SDS011;58152;49.202;18.744;2023-09-07T00:46:42;4.32;;;3.45;;
70588;SDS011;58152;49.202;18.744;2023-09-07T00:49:09;5.82;;;4.15;;
70588;SDS011;58152;49.202;18.744;2023-09-07T00:51:36;4.10;;;3.67;;
70588;SDS011;58152;49.202;18.744;2023-09-07T00:54:01;4.28;;;3.88;;
70588;SDS011;58152;49.202;18.744;2023-09-07T00:56:27;4.38;;;3.90;;
70588;SDS011;58152;49.202;18.744;2023-09-07T00:58:53;4.47;;;3.80;;
70588;SDS011;58152;49.202;18.744;2023-09-07T01:01:20;5.13;;;4.20;;
70588;SDS011;58152;49.202;18.744;2023-09-07T01:03:47;4.13;;;3.40;;
70588;SDS011;58152;49.202;18.744;2023-09-07T01:06:13;4.10;;;3.70;;
70588;SDS011;58152;49.202;18.744;2023-09-07T01:08:46;7.60;;;4.88;;
70588;SDS011;58152;49.202;18.744;2023-09-07T01:11:20;4.70;;;3.63;;
70588;SDS011;58152;49.202;18.744;2023-09-07T01:13:47;5.95;;;4.10;;
70588;SDS011;58152;49.202;18.744;2023-09-07T01:16:13;4.50;;;4.05;;
70588;SDS011;58152;49.202;18.744;2023-09-07T01:18:38;6.25;;;5.03;;
70588;SDS011;58152;49.202;18.744;2023-09-07T01:21:07;5.85;;;4.80;;
70588;SDS011;58152;49.202;18.744;2023-09-07T01:23:37;4.90;;;4.38;;
70588;SDS011;58152;49.202;18.744;2023-09-07T01:26:06;5.03;;;4.53;;
70588;SDS011;58152;49.202;18.744;2023-09-07T01:28:33;7.43;;;4.70;;
70588;SDS011;58152;49.202;18.744;2023-09-07T01:30:59;6.68;;;4.70;;
70588;SDS011;58152;49.202;18.744;2023-09-07T01:33:26;5.82;;;4.90;;
70588;SDS011;58152;49.202;18.744;2023-09-07T01:35:51;5.25;;;4.18;;
70588;SDS011;58152;49.202;18.744;2023-09-07T01:38:17;4.95;;;3.92;;
70588;SDS011;58152;49.202;18.744;2023-09-07T01:40:43;5.05;;;4.25;;
70588;SDS011;58152;49.202;18.744;2023-09-07T01:43:08;4.60;;;4.18;;
70588;SDS011;58152;49.202;18.744;2023-09-07T01:45:34;6.22;;;4.13;;
70588;SDS011;58152;49.202;18.744;2023-09-07T01:47:59;4.78;;;4.28;;
70588;SDS011;58152;49.202;18.744;2023-09-07T01:50:25;4.88;;;4.38;;
70588;SDS011;58152;49.202;18.744;2023-09-07T01:52:53;6.85;;;4.88;;
70588;SDS011;58152;49.202;18.744;2023-09-07T01:55:19;5.53;;;4.45;;
70588;SDS011;58152;49.202;18.744;2023-09-07T01:57:44;5.85;;;4.28;;
70588;SDS011;58152;49.202;18.744;2023-09-07T02:00:11;3.85;;;3.45;;
70588;SDS011;58152;49.202;18.744;2023-09-07T02:02:37;6.55;;;4.38;;
70588;SDS011;58152;49.202;18.744;2023-09-07T02:05:03;4.85;;;4.28;;
70588;SDS011;58152;49.202;18.744;2023-09-07T02:07:29;5.05;;;4.28;;
70588;SDS011;58152;49.202;18.744;2023-09-07T02:09:54;4.25;;;3.65;;
70588;SDS011;58152;49.202;18.744;2023-09-07T02:12:19;5.57;;;4.20;;
70588;SDS011;58152;49.202;18.744;2023-09-07T02:14:45;4.97;;;4.47;;
70588;SDS011;58152;49.202;18.744;2023-09-07T02:17:11;6.63;;;4.05;;
70588;SDS011;58152;49.202;18.744;2023-09-07T02:19:42;4.43;;;3.60;;
70588;SDS011;58152;49.202;18.744;2023-09-07T02:22:08;5.28;;;4.70;;
70588;SDS011;58152;49.202;18.744;2023-09-07T02:24:34;5.43;;;4.28;;
70588;SDS011;58152;49.202;18.744;2023-09-07T02:26:59;6.32;;;4.35;;
70588;SDS011;58152;49.202;18.744;2023-09-07T02:29:25;6.18;;;4.32;;
70588;SDS011;58152;49.202;18.744;2023-09-07T02:31:50;5.30;;;3.83;;
70588;SDS011;58152;49.202;18.744;2023-09-07T02:34:16;5.68;;;4.53;;
70588;SDS011;58152;49.202;18.744;2023-09-07T02:36:41;5.00;;;4.25;;
70588;SDS011;58152;49.202;18.744;2023-09-07T02:39:06;4.72;;;3.92;;
70588;SDS011;58152;49.202;18.744;2023-09-07T02:41:33;4.28;;;3.88;;
70588;SDS011;58152;49.202;18.744;2023-09-07T02:43:59;5.07;;;3.95;;
70588;SDS011;58152;49.202;18.744;2023-09-07T02:46:24;6.00;;;3.83;;
70588;SDS011;58152;49.202;18.744;2023-09-07T02:48:50;5.22;;;4.43;;
70588;SDS011;58152;49.202;18.744;2023-09-07T02:51:15;5.63;;;4.35;;
70588;SDS011;58152;49.202;18.744;2023-09-07T02:53:41;4.93;;;4.38;;
70588;SDS011;58152;49.202;18.744;2023-09-07T02:56:06;4.68;;;4.07;;
70588;SDS011;58152;49.202;18.744;2023-09-07T02:58:32;6.15;;;4.18;;
70588;SDS011;58152;49.202;18.744;2023-09-07T03:00:58;4.88;;;4.05;;
70588;SDS011;58152;49.202;18.744;2023-09-07T03:03:24;4.35;;;3.95;;
70588;SDS011;58152;49.202;18.744;2023-09-07T03:05:49;4.25;;;3.85;;
70588;SDS011;58152;49.202;18.744;2023-09-07T03:08:15;5.43;;;3.80;;
70588;SDS011;58152;49.202;18.744;2023-09-07T03:10:40;4.97;;;3.67;;
70588;SDS011;58152;49.202;18.744;2023-09-07T03:13:07;4.40;;;3.83;;
70588;SDS011;58152;49.202;18.744;2023-09-07T03:15:33;4.30;;;3.83;;
70588;SDS011;58152;49.202;18.744;2023-09-07T03:17:59;6.20;;;4.60;;
70588;SDS011;58152;49.202;18.744;2023-09-07T03:20:25;4.25;;;3.47;;
70588;SDS011;58152;49.202;18.744;2023-09-07T03:22:51;4.72;;;3.65;;
70588;SDS011;58152;49.202;18.744;2023-09-07T03:25:16;5.55;;;4.05;;
70588;SDS011;58152;49.202;18.744;2023-09-07T03:27:42;6.80;;;4.82;;
70588;SDS011;58152;49.202;18.744;2023-09-07T03:30:07;4.53;;;4.10;;
70588;SDS011;58152;49.202;18.744;2023-09-07T03:32:33;63.63;;;46.17;;
70588;SDS011;58152;49.202;18.744;2023-09-07T03:34:59;109.30;;;87.70;;
70588;SDS011;58152;49.202;18.744;2023-09-07T03:37:28;45.97;;;35.63;;
70588;SDS011;58152;49.202;18.744;2023-09-07T03:39:54;16.55;;;14.38;;
70588;SDS011;58152;49.202;18.744;2023-09-07T03:42:20;8.70;;;7.45;;
70588;SDS011;58152;49.202;18.744;2023-09-07T03:44:45;7.15;;;6.03;;
70588;SDS011;58152;49.202;18.744;2023-09-07T03:47:11;5.10;;;4.60;;
70588;SDS011;58152;49.202;18.744;2023-09-07T03:49:38;5.47;;;4.85;;
70588;SDS011;58152;49.202;18.744;2023-09-07T03:52:04;4.45;;;3.88;;
70588;SDS011;58152;49.202;18.744;2023-09-07T03:54:30;5.65;;;3.90;;
70588;SDS011;58152;49.202;18.744;2023-09-07T03:56:56;4.70;;;4.30;;
70588;SDS011;58152;49.202;18.744;2023-09-07T03:59:21;5.03;;;3.95;;
70588;SDS011;58152;49.202;18.744;2023-09-07T04:01:47;6.40;;;4.32;;
70588;SDS011;58152;49.202;18.744;2023-09-07T04:04:12;6.75;;;4.50;;
70588;SDS011;58152;49.202;18.744;2023-09-07T04:06:38;6.55;;;4.63;;
70588;SDS011;58152;49.202;18.744;2023-09-07T04:09:04;7.13;;;4.35;;
70588;SDS011;58152;49.202;18.744;2023-09-07T04:11:30;4.97;;;3.60;;
70588;SDS011;58152;49.202;18.744;2023-09-07T04:13:55;4.65;;;3.95;;
70588;SDS011;58152;49.202;18.744;2023-09-07T04:16:21;4.40;;;4.00;;
70588;SDS011;58152;49.202;18.744;2023-09-07T04:18:46;5.03;;;4.38;;
70588;SDS011;58152;49.202;18.744;2023-09-07T04:21:11;6.13;;;4.32;;
70588;SDS011;58152;49.202;18.744;2023-09-07T04:23:37;6.15;;;4.90;;
70588;SDS011;58152;49.202;18.744;2023-09-07T04:26:10;5.40;;;4.50;;
70588;SDS011;58152;49.202;18.744;2023-09-07T04:28:37;7.85;;;4.38;;
70588;SDS011;58152;49.202;18.744;2023-09-07T04:31:03;4.97;;;4.28;;
70588;SDS011;58152;49.202;18.744;2023-09-07T04:33:30;5.97;;;4.53;;
70588;SDS011;58152;49.202;18.744;2023-09-07T04:35:56;5.18;;;4.68;;
70588;SDS011;58152;49.202;18.744;2023-09-07T04:38:22;7.30;;;5.00;;
70588;SDS011;58152;49.202;18.744;2023-09-07T04:40:47;4.72;;;4.22;;
70588;SDS011;58152;49.202;18.744;2023-09-07T04:43:13;4.88;;;3.90;;
70588;SDS011;58152;49.202;18.744;2023-09-07T04:45:45;4.88;;;4.00;;
70588;SDS011;58152;49.202;18.744;2023-09-07T04:48:11;4.55;;;4.13;;
70588;SDS011;58152;49.202;18.744;2023-09-07T04:50:37;6.05;;;4.10;;
70588;SDS011;58152;49.202;18.744;2023-09-07T04:53:03;5.28;;;3.95;;
70588;SDS011;58152;49.202;18.744;2023-09-07T04:55:28;5.95;;;4.50;;
70588;SDS011;58152;49.202;18.744;2023-09-07T04:58:07;5.97;;;4.35;;
70588;SDS011;58152;49.202;18.744;2023-09-07T05:01:10;4.57;;;4.05;;
70588;SDS011;58152;49.202;18.744;2023-09-07T05:04:08;142.43;;;116.82;;
70588;SDS011;58152;49.202;18.744;2023-09-07T05:06:39;152.95;;;134.60;;
70588;SDS011;58152;49.202;18.744;2023-09-07T05:09:06;54.22;;;46.80;;
70588;SDS011;58152;49.202;18.744;2023-09-07T05:11:32;23.33;;;19.20;;
70588;SDS011;58152;49.202;18.744;2023-09-07T05:14:00;10.95;;;9.77;;
70588;SDS011;58152;49.202;18.744;2023-09-07T05:16:27;6.78;;;5.60;;
70588;SDS011;58152;49.202;18.744;2023-09-07T05:18:52;10.38;;;6.10;;
70588;SDS011;58152;49.202;18.744;2023-09-07T05:21:18;7.28;;;4.68;;
70588;SDS011;58152;49.202;18.744;2023-09-07T05:23:43;7.75;;;5.10;;
70588;SDS011;58152;49.202;18.744;2023-09-07T05:26:09;9.15;;;5.68;;
70588;SDS011;58152;49.202;18.744;2023-09-07T05:28:35;7.60;;;5.90;;
70588;SDS011;58152;49.202;18.744;2023-09-07T05:31:00;7.18;;;5.70;;
70588;SDS011;58152;49.202;18.744;2023-09-07T05:33:26;11.80;;;6.10;;
70588;SDS011;58152;49.202;18.744;2023-09-07T05:35:51;7.53;;;6.05;;
70588;SDS011;58152;49.202;18.744;2023-09-07T05:38:16;7.65;;;6.65;;
70588;SDS011;58152;49.202;18.744;2023-09-07T05:40:49;10.38;;;6.65;;
70588;SDS011;58152;49.202;18.744;2023-09-07T05:43:19;8.70;;;6.90;;
70588;SDS011;58152;49.202;18.744;2023-09-07T05:45:44;7.25;;;6.13;;
70588;SDS011;58152;49.202;18.744;2023-09-07T05:48:10;8.55;;;6.70;;
70588;SDS011;58152;49.202;18.744;2023-09-07T05:50:37;10.13;;;7.18;;
70588;SDS011;58152;49.202;18.744;2023-09-07T05:56:28;7.95;;;7.18;;
70588;SDS011;58152;49.202;18.744;2023-09-07T05:59:39;9.35;;;7.32;;
70588;SDS011;58152;49.202;18.744;2023-09-07T06:02:05;8.90;;;7.20;;
70588;SDS011;58152;49.202;18.744;2023-09-07T06:04:31;9.35;;;7.40;;
70588;SDS011;58152;49.202;18.744;2023-09-07T06:06:57;7.97;;;7.18;;
70588;SDS011;58152;49.202;18.744;2023-09-07T06:09:22;13.65;;;9.13;;
70588;SDS011;58152;49.202;18.744;2023-09-07T06:11:48;12.70;;;9.73;;
70588;SDS011;58152;49.202;18.744;2023-09-07T06:14:13;9.68;;;8.40;;
70588;SDS011;58152;49.202;18.744;2023-09-07T06:16:38;8.00;;;7.20;;
70588;SDS011;58152;49.202;18.744;2023-09-07T06:19:04;9.85;;;8.43;;
70588;SDS011;58152;49.202;18.744;2023-09-07T06:21:31;8.52;;;7.35;;
70588;SDS011;58152;49.202;18.744;2023-09-07T06:23:57;9.93;;;8.27;;
70588;SDS011;58152;49.202;18.744;2023-09-07T06:26:22;12.07;;;10.40;;
70588;SDS011;58152;49.202;18.744;2023-09-07T06:28:47;12.40;;;10.73;;
70588;SDS011;58152;49.202;18.744;2023-09-07T06:31:13;11.50;;;10.15;;
70588;SDS011;58152;49.202;18.744;2023-09-07T06:33:38;12.82;;;11.52;;
70588;SDS011;58152;49.202;18.744;2023-09-07T06:36:04;13.82;;;12.32;;
70588;SDS011;58152;49.202;18.744;2023-09-07T06:38:29;12.60;;;11.40;;
70588;SDS011;58152;49.202;18.744;2023-09-07T06:40:55;13.88;;;11.60;;
70588;SDS011;58152;49.202;18.744;2023-09-07T06:43:20;15.57;;;12.07;;
70588;SDS011;58152;49.202;18.744;2023-09-07T06:45:46;14.05;;;12.60;;
70588;SDS011;58152;49.202;18.744;2023-09-07T06:48:11;13.77;;;12.25;;
70588;SDS011;58152;49.202;18.744;2023-09-07T06:50:37;12.90;;;11.00;;
70588;SDS011;58152;49.202;18.744;2023-09-07T06:53:03;13.40;;;11.73;;
70588;SDS011;58152;49.202;18.744;2023-09-07T06:55:28;12.40;;;10.60;;
70588;SDS011;58152;49.202;18.744;2023-09-07T06:57:54;14.80;;;11.30;;
70588;SDS011;58152;49.202;18.744;2023-09-07T07:00:20;15.65;;;11.18;;
70588;SDS011;58152;49.202;18.744;2023-09-07T07:02:46;12.27;;;10.95;;
70588;SDS011;58152;49.202;18.744;2023-09-07T07:05:12;14.73;;;12.05;;
70588;SDS011;58152;49.202;18.744;2023-09-07T07:07:38;18.85;;;14.55;;
70588;SDS011;58152;49.202;18.744;2023-09-07T07:10:04;17.08;;;13.90;;
70588;SDS011;58152;49.202;18.744;2023-09-07T07:12:30;16.90;;;14.68;;
70588;SDS011;58152;49.202;18.744;2023-09-07T07:14:59;17.35;;;14.40;;
70588;SDS011;58152;49.202;18.744;2023-09-07T07:17:25;15.23;;;13.60;;
70588;SDS011;58152;49.202;18.744;2023-09-07T07:19:50;15.70;;;13.60;;
70588;SDS011;58152;49.202;18.744;2023-09-07T07:22:16;16.65;;;14.00;;
70588;SDS011;58152;49.202;18.744;2023-09-07T07:24:42;14.45;;;12.73;;
70588;SDS011;58152;49.202;18.744;2023-09-07T07:27:08;16.40;;;14.70;;
70588;SDS011;58152;49.202;18.744;2023-09-07T07:29:33;15.70;;;13.13;;
70588;SDS011;58152;49.202;18.744;2023-09-07T07:31:59;15.90;;;13.20;;
70588;SDS011;58152;49.202;18.744;2023-09-07T07:34:24;18.13;;;12.95;;
70588;SDS011;58152;49.202;18.744;2023-09-07T07:36:50;14.07;;;11.35;;
70588;SDS011;58152;49.202;18.744;2023-09-07T07:39:15;14.48;;;11.88;;
70588;SDS011;58152;49.202;18.744;2023-09-07T07:41:41;12.43;;;11.23;;
70588;SDS011;58152;49.202;18.744;2023-09-07T07:44:06;13.15;;;11.80;;
70588;SDS011;58152;49.202;18.744;2023-09-07T07:46:32;12.93;;;11.48;;
70588;SDS011;58152;49.202;18.744;2023-09-07T07:48:57;13.20;;;11.50;;
70588;SDS011;58152;49.202;18.744;2023-09-07T07:51:23;12.35;;;10.95;;
70588;SDS011;58152;49.202;18.744;2023-09-07T07:53:49;13.10;;;11.68;;
70588;SDS011;58152;49.202;18.744;2023-09-07T07:56:15;14.00;;;11.93;;
70588;SDS011;58152;49.202;18.744;2023-09-07T07:58:41;14.63;;;13.02;;
70588;SDS011;58152;49.202;18.744;2023-09-07T08:01:14;13.60;;;11.70;;
70588;SDS011;58152;49.202;18.744;2023-09-07T08:03:40;14.18;;;12.65;;
70588;SDS011;58152;49.202;18.744;2023-09-07T08:06:06;12.48;;;11.10;;
70588;SDS011;58152;49.202;18.744;2023-09-07T08:08:31;15.05;;;13.15;;
70588;SDS011;58152;49.202;18.744;2023-09-07T08:10:56;20.70;;;14.80;;
70588;SDS011;58152;49.202;18.744;2023-09-07T08:13:23;19.27;;;15.30;;
70588;SDS011;58152;49.202;18.744;2023-09-07T08:15:49;21.15;;;16.10;;
70588;SDS011;58152;49.202;18.744;2023-09-07T08:18:14;19.83;;;15.07;;
70588;SDS011;58152;49.202;18.744;2023-09-07T08:20:40;18.48;;;15.63;;
70588;SDS011;58152;49.202;18.744;2023-09-07T08:23:06;21.67;;;16.05;;
70588;SDS011;58152;49.202;18.744;2023-09-07T08:25:34;19.33;;;16.13;;
70588;SDS011;58152;49.202;18.744;2023-09-07T08:28:00;16.02;;;13.48;;
70588;SDS011;58152;49.202;18.744;2023-09-07T08:30:30;15.45;;;12.77;;
70588;SDS011;58152;49.202;18.744;2023-09-07T08:32:55;17.17;;;14.00;;
70588;SDS011;58152;49.202;18.744;2023-09-07T08:35:20;15.05;;;12.40;;
70588;SDS011;58152;49.202;18.744;2023-09-07T08:37:51;16.15;;;13.15;;
70588;SDS011;58152;49.202;18.744;2023-09-07T08:40:17;13.13;;;11.57;;
70588;SDS011;58152;49.202;18.744;2023-09-07T08:42:43;14.52;;;10.65;;
70588;SDS011;58152;49.202;18.744;2023-09-07T08:45:09;12.05;;;9.50;;
70588;SDS011;58152;49.202;18.744;2023-09-07T08:47:40;8.10;;;6.97;;
70588;SDS011;58152;49.202;18.744;2023-09-07T08:50:07;8.80;;;7.90;;
70588;SDS011;58152;49.202;18.744;2023-09-07T08:52:36;8.85;;;7.97;;
70588;SDS011;58152;49.202;18.744;2023-09-07T08:55:02;8.27;;;7.03;;
70588;SDS011;58152;49.202;18.744;2023-09-07T08:57:31;7.63;;;6.85;;
70588;SDS011;58152;49.202;18.744;2023-09-07T08:59:57;9.00;;;7.32;;
70588;SDS011;58152;49.202;18.744;2023-09-07T09:02:23;7.70;;;6.13;;
70588;SDS011;58152;49.202;18.744;2023-09-07T09:04:48;8.48;;;6.88;;
70588;SDS011;58152;49.202;18.744;2023-09-07T09:07:14;7.05;;;6.35;;
70588;SDS011;58152;49.202;18.744;2023-09-07T09:09:39;7.82;;;7.03;;
70588;SDS011;58152;49.202;18.744;2023-09-07T09:12:11;7.80;;;6.75;;
70588;SDS011;58152;49.202;18.744;2023-09-07T09:14:41;7.72;;;5.65;;
70588;SDS011;58152;49.202;18.744;2023-09-07T09:17:10;7.57;;;6.07;;
70588;SDS011;58152;49.202;18.744;2023-09-07T09:19:37;6.32;;;5.72;;
70588;SDS011;58152;49.202;18.744;2023-09-07T09:22:03;6.32;;;5.72;;
70588;SDS011;58152;49.202;18.744;2023-09-07T09:24:31;5.97;;;5.38;;
70588;SDS011;58152;49.202;18.744;2023-09-07T09:26:58;7.07;;;5.30;;
70588;SDS011;58152;49.202;18.744;2023-09-07T09:29:26;6.82;;;5.53;;
70588;SDS011;58152;49.202;18.744;2023-09-07T09:31:52;5.40;;;4.85;;
70588;SDS011;58152;49.202;18.744;2023-09-07T09:34:18;6.38;;;5.07;;
70588;SDS011;58152;49.202;18.744;2023-09-07T09:36:45;6.32;;;5.15;;
70588;SDS011;58152;49.202;18.744;2023-09-07T09:39:20;7.20;;;5.18;;
70588;SDS011;58152;49.202;18.744;2023-09-07T09:41:47;6.00;;;4.60;;
70588;SDS011;58152;49.202;18.744;2023-09-07T09:44:13;7.00;;;5.53;;
70588;SDS011;58152;49.202;18.744;2023-09-07T09:46:41;6.60;;;5.10;;
70588;SDS011;58152;49.202;18.744;2023-09-07T09:49:08;5.68;;;5.07;;
70588;SDS011;58152;49.202;18.744;2023-09-07T09:51:39;6.50;;;5.30;;
70588;SDS011;58152;49.202;18.744;2023-09-07T09:54:04;5.13;;;4.57;;
70588;SDS011;58152;49.202;18.744;2023-09-07T09:56:37;6.13;;;4.93;;
70588;SDS011;58152;49.202;18.744;2023-09-07T09:59:02;4.97;;;4.47;;
70588;SDS011;58152;49.202;18.744;2023-09-07T10:01:41;7.15;;;4.63;;
70588;SDS011;58152;49.202;18.744;2023-09-07T10:04:17;5.65;;;4.63;;
70588;SDS011;58152;49.202;18.744;2023-09-07T10:06:56;7.28;;;5.00;;
70588;SDS011;58152;49.202;18.744;2023-09-07T10:09:30;8.02;;;4.43;;
70588;SDS011;58152;49.202;18.744;2023-09-07T10:15:26;4.82;;;4.28;;
70588;SDS011;58152;49.202;18.744;2023-09-07T10:20:51;5.32;;;4.53;;
70588;SDS011;58152;49.202;18.744;2023-09-07T10:23:20;6.35;;;4.28;;
70588;SDS011;58152;49.202;18.744;2023-09-07T10:25:47;5.30;;;3.85;;
70588;SDS011;58152;49.202;18.744;2023-09-07T10:28:21;5.43;;;4.32;;
70588;SDS011;58152;49.202;18.744;2023-09-07T10:30:58;4.93;;;3.85;;
70588;SDS011;58152;49.202;18.744;2023-09-07T10:33:27;4.20;;;3.70;;
70588;SDS011;58152;49.202;18.744;2023-09-07T10:35:52;4.32;;;3.92;;
70588;SDS011;58152;49.202;18.744;2023-09-07T10:38:18;3.78;;;3.33;;
70588;SDS011;58152;49.202;18.744;2023-09-07T10:40:44;3.58;;;3.20;;
70588;SDS011;58152;49.202;18.744;2023-09-07T10:43:29;4.78;;;3.20;;
70588;SDS011;58152;49.202;18.744;2023-09-07T10:45:58;5.72;;;3.75;;
70588;SDS011;58152;49.202;18.744;2023-09-07T10:48:30;5.22;;;3.55;;
70588;SDS011;58152;49.202;18.744;2023-09-07T10:50:56;3.78;;;3.47;;
70588;SDS011;58152;49.202;18.744;2023-09-07T10:53:29;4.88;;;3.40;;
70588;SDS011;58152;49.202;18.744;2023-09-07T10:56:02;3.83;;;3.25;;
70588;SDS011;58152;49.202;18.744;2023-09-07T10:58:32;4.80;;;3.45;;
70588;SDS011;58152;49.202;18.744;2023-09-07T11:00:59;4.43;;;3.10;;
70588;SDS011;58152;49.202;18.744;2023-09-07T11:03:30;3.60;;;3.25;;
70588;SDS011;58152;49.202;18.744;2023-09-07T11:06:10;4.00;;;3.53;;
70588;SDS011;58152;49.202;18.744;2023-09-07T11:11:32;4.70;;;4.20;;
70588;SDS011;58152;49.202;18.744;2023-09-07T11:14:01;6.45;;;4.20;;
70588;SDS011;58152;49.202;18.744;2023-09-07T11:16:30;5.55;;;4.30;;
70588;SDS011;58152;49.202;18.744;2023-09-07T11:19:02;4.90;;;4.18;;
70588;SDS011;58152;49.202;18.744;2023-09-07T11:21:31;4.82;;;4.32;;
70588;SDS011;58152;49.202;18.744;2023-09-07T11:23:59;5.75;;;4.20;;
70588;SDS011;58152;49.202;18.744;2023-09-07T11:26:25;3.50;;;3.20;;
70588;SDS011;58152;49.202;18.744;2023-09-07T11:28:51;6.55;;;2.92;;
70588;SDS011;58152;49.202;18.744;2023-09-07T11:31:19;2.60;;;2.40;;
70588;SDS011;58152;49.202;18.744;2023-09-07T11:33:47;5.57;;;2.67;;
70588;SDS011;58152;49.202;18.744;2023-09-07T11:36:17;3.33;;;2.70;;
70588;SDS011;58152;49.202;18.744;2023-09-07T11:38:53;4.22;;;3.05;;
70588;SDS011;58152;49.202;18.744;2023-09-07T11:41:19;2.92;;;2.63;;
70588;SDS011;58152;49.202;18.744;2023-09-07T11:43:44;3.80;;;3.33;;
70588;SDS011;58152;49.202;18.744;2023-09-07T11:46:10;3.72;;;3.30;;
70588;SDS011;58152;49.202;18.744;2023-09-07T11:48:35;4.85;;;3.42;;
70588;SDS011;58152;49.202;18.744;2023-09-07T11:51:01;3.75;;;3.30;;
70588;SDS011;58152;49.202;18.744;2023-09-07T11:53:27;3.45;;;3.15;;
70588;SDS011;58152;49.202;18.744;2023-09-07T11:55:52;3.75;;;3.38;;
70588;SDS011;58152;49.202;18.744;2023-09-07T11:58:18;3.58;;;3.28;;
70588;SDS011;58152;49.202;18.744;2023-09-07T12:00:43;3.03;;;2.72;;
70588;SDS011;58152;49.202;18.744;2023-09-07T12:03:09;3.90;;;3.53;;
70588;SDS011;58152;49.202;18.744;2023-09-07T12:05:35;3.03;;;2.50;;
70588;SDS011;58152;49.202;18.744;2023-09-07T12:08:02;3.83;;;2.80;;
70588;SDS011;58152;49.202;18.744;2023-09-07T12:10:28;3.53;;;3.00;;
70588;SDS011;58152;49.202;18.744;2023-09-07T12:12:53;3.28;;;2.95;;
70588;SDS011;58152;49.202;18.744;2023-09-07T12:15:19;3.45;;;3.00;;
70588;SDS011;58152;49.202;18.744;2023-09-07T12:17:44;3.67;;;2.75;;
70588;SDS011;58152;49.202;18.744;2023-09-07T12:20:10;2.50;;;2.22;;
70588;SDS011;58152;49.202;18.744;2023-09-07T12:22:37;2.92;;;2.67;;
70588;SDS011;58152;49.202;18.744;2023-09-07T12:25:05;3.53;;;2.55;;
70588;SDS011;58152;49.202;18.744;2023-09-07T12:27:32;3.45;;;2.58;;
70588;SDS011;58152;49.202;18.744;2023-09-07T12:29:59;2.63;;;2.42;;
70588;SDS011;58152;49.202;18.744;2023-09-07T12:32:24;2.70;;;2.38;;
70588;SDS011;58152;49.202;18.744;2023-09-07T12:34:50;2.92;;;2.70;;
70588;SDS011;58152;49.202;18.744;2023-09-07T12:37:18;2.60;;;2.30;;
70588;SDS011;58152;49.202;18.744;2023-09-07T12:39:44;2.67;;;2.28;;
70588;SDS011;58152;49.202;18.744;2023-09-07T12:42:10;3.17;;;2.20;;
70588;SDS011;58152;49.202;18.744;2023-09-07T12:44:35;3.92;;;2.70;;
70588;SDS011;58152;49.202;18.744;2023-09-07T12:47:01;3.42;;;2.38;;
70588;SDS011;58152;49.202;18.744;2023-09-07T12:49:26;5.00;;;2.55;;
70588;SDS011;58152;49.202;18.744;2023-09-07T12:51:51;3.10;;;2.78;;
70588;SDS011;58152;49.202;18.744;2023-09-07T12:54:17;3.55;;;2.92;;
70588;SDS011;58152;49.202;18.744;2023-09-07T12:56:42;3.30;;;2.53;;
70588;SDS011;58152;49.202;18.744;2023-09-07T12:59:08;3.05;;;2.50;;
70588;SDS011;58152;49.202;18.744;2023-09-07T13:01:33;3.03;;;2.70;;
70588;SDS011;58152;49.202;18.744;2023-09-07T13:03:59;2.97;;;2.60;;
70588;SDS011;58152;49.202;18.744;2023-09-07T13:06:24;3.40;;;2.42;;
70588;SDS011;58152;49.202;18.744;2023-09-07T13:08:50;3.30;;;2.90;;
70588;SDS011;58152;49.202;18.744;2023-09-07T13:11:15;2.67;;;2.15;;
70588;SDS011;58152;49.202;18.744;2023-09-07T13:13:41;2.83;;;2.53;;
70588;SDS011;58152;49.202;18.744;2023-09-07T13:16:06;2.47;;;2.10;;
70588;SDS011;58152;49.202;18.744;2023-09-07T13:18:32;2.83;;;2.47;;
70588;SDS011;58152;49.202;18.744;2023-09-07T13:20:57;3.17;;;2.40;;
70588;SDS011;58152;49.202;18.744;2023-09-07T13:23:29;2.30;;;1.83;;
70588;SDS011;58152;49.202;18.744;2023-09-07T13:25:57;2.97;;;2.35;;
70588;SDS011;58152;49.202;18.744;2023-09-07T13:28:23;2.13;;;1.77;;
70588;SDS011;58152;49.202;18.744;2023-09-07T13:30:49;2.78;;;2.28;;
70588;SDS011;58152;49.202;18.744;2023-09-07T13:33:15;1.77;;;1.60;;
70588;SDS011;58152;49.202;18.744;2023-09-07T13:35:41;2.92;;;2.00;;
70588;SDS011;58152;49.202;18.744;2023-09-07T13:38:06;1.92;;;1.70;;
70588;SDS011;58152;49.202;18.744;2023-09-07T13:40:31;2.42;;;2.22;;
70588;SDS011;58152;49.202;18.744;2023-09-07T13:42:57;2.20;;;1.88;;
70588;SDS011;58152;49.202;18.744;2023-09-07T13:45:22;3.10;;;1.70;;
70588;SDS011;58152;49.202;18.744;2023-09-07T13:47:48;2.60;;;2.30;;
70588;SDS011;58152;49.202;18.744;2023-09-07T13:50:13;2.00;;;1.80;;
70588;SDS011;58152;49.202;18.744;2023-09-07T13:52:39;2.50;;;2.10;;
70588;SDS011;58152;49.202;18.744;2023-09-07T13:55:05;2.88;;;2.08;;
70588;SDS011;58152;49.202;18.744;2023-09-07T13:57:30;1.77;;;1.55;;
70588;SDS011;58152;49.202;18.744;2023-09-07T13:59:57;2.15;;;1.85;;
70588;SDS011;58152;49.202;18.744;2023-09-07T14:02:22;1.95;;;1.75;;
70588;SDS011;58152;49.202;18.744;2023-09-07T14:04:48;2.03;;;1.80;;
70588;SDS011;58152;49.202;18.744;2023-09-07T14:07:14;1.48;;;1.38;;
70588;SDS011;58152;49.202;18.744;2023-09-07T14:09:40;2.80;;;1.80;;
70588;SDS011;58152;49.202;18.744;2023-09-07T14:12:05;2.88;;;2.33;;
70588;SDS011;58152;49.202;18.744;2023-09-07T14:14:31;2.50;;;2.22;;
70588;SDS011;58152;49.202;18.744;2023-09-07T14:16:56;2.47;;;1.70;;
70588;SDS011;58152;49.202;18.744;2023-09-07T14:19:23;1.95;;;1.73;;
70588;SDS011;58152;49.202;18.744;2023-09-07T14:21:49;2.45;;;1.73;;
70588;SDS011;58152;49.202;18.744;2023-09-07T14:24:15;1.80;;;1.58;;
70588;SDS011;58152;49.202;18.744;2023-09-07T14:26:41;31.75;;;28.67;;
70588;SDS011;58152;49.202;18.744;2023-09-07T14:29:09;67.18;;;61.33;;
70588;SDS011;58152;49.202;18.744;2023-09-07T14:31:34;29.35;;;23.77;;
70588;SDS011;58152;49.202;18.744;2023-09-07T14:33:59;8.05;;;6.63;;
70588;SDS011;58152;49.202;18.744;2023-09-07T14:36:26;3.22;;;2.92;;
70588;SDS011;58152;49.202;18.744;2023-09-07T14:38:52;2.63;;;2.28;;